Terminal Aerodrome Forecast
Issued by NWS

Home | Current Version | Previous Version | Text Only | Print | Product List | Glossary Off
Versions: 1 2 3 4 5 6 7 8 9 10 11 12 13 14 15 16 17 18 19 20 21 22

000
FTUS43 KMPX 040910 AAA
TAFAXN
TAF AMD
KAXN 040910Z 0409/0506 VRB03KT 3SM BR HZ SCT050 BKN250
      TEMPO 0411/0413 1SM BR HZ
     FM041400 15006KT 5SM HZ SCT040 BKN250
     FM041800 18009KT 6SM HZ BKN250=

USA.gov is the U.S. government's official web portal to all federal, state and local government web resources and services.